Maersk Weymouth — VRFS9 — position and weather

sailwx.info

Track history (hours):
 
Tides and Currents Weather Stations Pressure Air Temp Water Temp Dewpoint Dewpoint Depression Visibility Wind Speed Wind Dir Waves Ship Positions

Maersk Weymouth

Last reported at 2017-May-24 01:08 UTC. Time now 2017-May-24 17:34 UTC.
Position N 09°22' W 079°53'.

Length 175 m; draft 8.9 m.

Type: Cargo ship. MMSI: 477622100.

Date/timePositionNaut miles runAvg speedWind from/ knotsBaromVisibWave heightAir tempDewpointWater temp
2017-May-24 01:08N 09°22' W 079°53'0 0.0
2017-May-24 00:56N 09°22' W 079°53'0 0.0
2017-May-24 00:29N 09°22' W 079°53'0 0.0
2017-May-23 23:59N 09°22' W 079°53'0 0.0
2017-May-23 23:29N 09°22' W 079°53'0 0.0
2017-May-23 22:59N 09°22' W 079°53'0 0.0
2017-May-23 22:29N 09°22' W 079°53'0 0.0
2017-May-23 21:59N 09°22' W 079°53'0 0.0
2017-May-23 21:29N 09°22' W 079°53'0 0.0
2017-May-23 20:59N 09°22' W 079°53'0 0.0
2017-May-23 20:23N 09°22' W 079°53'0 0.0
2017-May-23 19:59N 09°22' W 079°53'0 0.0
2017-May-23 19:26N 09°22' W 079°53'0 0.0
2017-May-23 18:59N 09°22' W 079°53'0 0.0
2017-May-23 18:29N 09°22' W 079°53'0 0.0
2017-May-23 17:59N 09°22' W 079°53'0 0.0
2017-May-23 17:29N 09°22' W 079°53'0 0.0
2017-May-23 16:59N 09°22' W 079°53'0 0.0
2017-May-23 16:29N 09°22' W 079°53'0 0.0
2017-May-23 15:59N 09°22' W 079°53'0 0.0
2017-May-23 15:29N 09°22' W 079°53'0 0.0
2017-May-23 14:59N 09°22' W 079°53'0 0.0
2017-May-23 14:29N 09°22' W 079°53'2 1.7
2017-May-23 13:30N 09°23' W 079°54'4 7.2
2017-May-23 13:00N 09°27' W 079°53'2 3.4
2017-May-23 12:30N 09°28' W 079°53'2 3.4
2017-May-23 12:00N 09°30' W 079°52'0 0.9
2017-May-23 11:30N 09°30' W 079°51'0 0.5
2017-May-23 11:00N 09°30' W 079°52'0 0.8
2017-May-23 10:30N 09°30' W 079°52'1 1.1
2017-May-23 10:01N 09°31' W 079°52'0 1.0
2017-May-23 09:30N 09°31' W 079°53'1 1.1
2017-May-23 08:57N 09°31' W 079°53'2 3.7
2017-May-23 08:30N 09°32' W 079°54'1 1.1
2017-May-23 08:00N 09°32' W 079°55'1 1.2
2017-May-23 07:30N 09°32' W 079°55'2 3.0
2017-May-23 07:00N 09°32' W 079°57'3 7.0
2017-May-23 06:30N 09°32' W 080°00'  
2017-May-14 15:04N 25°30' W 079°30'116.2
2017-May-14 15:00N 25°31' W 079°30'916.0
2017-May-14 14:28N 25°39' W 079°29'1716.1
2017-May-14 13:26N 25°56' W 079°26'716.2
2017-May-14 13:00N 26°03' W 079°25'816.3
2017-May-14 12:30N 26°11' W 079°24'816.0
2017-May-14 12:00N 26°19' W 079°23'  
Track history (hours):
 
Tides and Currents Weather Stations Pressure Air Temp Water Temp Dewpoint Dewpoint Depression Visibility Wind Speed Wind Dir Waves Ship Positions

Maersk Weymouth

Last reported at 2017-May-24 01:08 UTC. Time now 2017-May-24 17:34 UTC.
Position N 09°22' W 079°53'.

Length 175 m; draft 8.9 m.

Type: Cargo ship. MMSI: 477622100.

Date/timePositionNaut miles runAvg speedWind from/ knotsBaromVisibWave heightAir tempDewpointWater temp
2017-May-24 01:08N 09°22' W 079°53'0 0.0
2017-May-24 00:56N 09°22' W 079°53'0 0.0
2017-May-24 00:29N 09°22' W 079°53'0 0.0
2017-May-23 23:59N 09°22' W 079°53'0 0.0
2017-May-23 23:29N 09°22' W 079°53'0 0.0
2017-May-23 22:59N 09°22' W 079°53'0 0.0
2017-May-23 22:29N 09°22' W 079°53'0 0.0
2017-May-23 21:59N 09°22' W 079°53'0 0.0
2017-May-23 21:29N 09°22' W 079°53'0 0.0
2017-May-23 20:59N 09°22' W 079°53'0 0.0
2017-May-23 20:23N 09°22' W 079°53'0 0.0
2017-May-23 19:59N 09°22' W 079°53'0 0.0
2017-May-23 19:26N 09°22' W 079°53'0 0.0
2017-May-23 18:59N 09°22' W 079°53'0 0.0
2017-May-23 18:29N 09°22' W 079°53'0 0.0
2017-May-23 17:59N 09°22' W 079°53'0 0.0
2017-May-23 17:29N 09°22' W 079°53'0 0.0
2017-May-23 16:59N 09°22' W 079°53'0 0.0
2017-May-23 16:29N 09°22' W 079°53'0 0.0
2017-May-23 15:59N 09°22' W 079°53'0 0.0
2017-May-23 15:29N 09°22' W 079°53'0 0.0
2017-May-23 14:59N 09°22' W 079°53'0 0.0
2017-May-23 14:29N 09°22' W 079°53'2 1.7
2017-May-23 13:30N 09°23' W 079°54'4 7.2
2017-May-23 13:00N 09°27' W 079°53'2 3.4
2017-May-23 12:30N 09°28' W 079°53'2 3.4
2017-May-23 12:00N 09°30' W 079°52'0 0.9
2017-May-23 11:30N 09°30' W 079°51'0 0.5
2017-May-23 11:00N 09°30' W 079°52'0 0.8
2017-May-23 10:30N 09°30' W 079°52'1 1.1
2017-May-23 10:01N 09°31' W 079°52'0 1.0
2017-May-23 09:30N 09°31' W 079°53'1 1.1
2017-May-23 08:57N 09°31' W 079°53'2 3.7
2017-May-23 08:30N 09°32' W 079°54'1 1.1
2017-May-23 08:00N 09°32' W 079°55'1 1.2
2017-May-23 07:30N 09°32' W 079°55'2 3.0
2017-May-23 07:00N 09°32' W 079°57'3 7.0
2017-May-23 06:30N 09°32' W 080°00'  
2017-May-14 15:04N 25°30' W 079°30'116.2
2017-May-14 15:00N 25°31' W 079°30'916.0
2017-May-14 14:28N 25°39' W 079°29'1716.1
2017-May-14 13:26N 25°56' W 079°26'716.2
2017-May-14 13:00N 26°03' W 079°25'816.3
2017-May-14 12:30N 26°11' W 079°24'816.0
2017-May-14 12:00N 26°19' W 079°23'  

Dump ship's entire track history